createdAt,value
2019-01-27T00:00:19.456Z,3.1
2019-01-27T00:02:19.122Z,4
2019-01-27T00:04:18.951Z,3.7
2019-01-27T00:06:18.826Z,3.6
2019-01-27T00:08:18.498Z,3.8
2019-01-27T00:10:18.682Z,3.1
2019-01-27T00:12:19.344Z,3.5
2019-01-27T00:14:19.032Z,3.4
2019-01-27T00:16:18.888Z,3.7
2019-01-27T00:18:18.666Z,3.1
2019-01-27T00:20:19.323Z,3.8
2019-01-27T00:22:19.001Z,2.9
2019-01-27T00:24:18.666Z,3.6
2019-01-27T00:26:18.617Z,3
2019-01-27T00:28:19.254Z,3.3
2019-01-27T00:30:18.927Z,3.5
2019-01-27T00:32:18.608Z,2.6
2019-01-27T00:34:19.264Z,3.1
2019-01-27T00:36:19.183Z,3.1
2019-01-27T00:38:18.833Z,3.3
2019-01-27T00:40:19.015Z,3.2
2019-01-27T00:42:19.024Z,3.2
2019-01-27T00:44:18.677Z,2.1
2019-01-27T00:46:18.529Z,2.8
2019-01-27T00:48:19.186Z,2.7
2019-01-27T00:50:18.850Z,2.8
2019-01-27T00:52:18.549Z,2.4
2019-01-27T00:54:19.218Z,2.1
2019-01-27T00:56:18.995Z,2.2
2019-01-27T00:58:18.650Z,1.6
2019-01-27T01:00:19.312Z,2.2
2019-01-27T01:02:18.969Z,2.6
2019-01-27T01:04:18.628Z,1.9
2019-01-27T01:06:18.936Z,2.3
2019-01-27T01:08:18.601Z,2.4
2019-01-27T01:10:18.727Z,2.3
2019-01-27T01:12:19.362Z,2.1
2019-01-27T01:14:19.054Z,1.9
2019-01-27T01:16:18.794Z,2.1
2019-01-27T01:18:18.510Z,2.2
2019-01-27T01:20:19.183Z,1.6
2019-01-27T01:22:18.831Z,2
2019-01-27T01:24:18.474Z,1.8
2019-01-27T01:26:18.780Z,1.8
2019-01-27T01:28:19.405Z,2.1
2019-01-27T01:30:19.074Z,2.5
2019-01-27T01:32:18.725Z,1.7
2019-01-27T01:34:19.371Z,2.4
2019-01-27T01:36:19.247Z,2
2019-01-27T01:38:18.932Z,2.4
2019-01-27T01:40:19.323Z,2.8
2019-01-27T01:42:18.997Z,1.8
2019-01-27T01:44:18.661Z,1.6
2019-01-27T01:46:18.984Z,2.4
2019-01-27T01:48:18.623Z,2.9
2019-01-27T01:50:19.302Z,2.9
2019-01-27T01:52:18.956Z,2.8
2019-01-27T01:54:18.640Z,2.8
2019-01-27T01:56:18.631Z,3
2019-01-27T01:58:19.282Z,3.2
2019-01-27T02:00:18.956Z,3
2019-01-27T02:02:18.616Z,3
2019-01-27T02:04:19.259Z,4.6
2019-01-27T02:06:18.753Z,3.4
2019-01-27T02:08:19.416Z,3.4
2019-01-27T02:10:18.594Z,3.1
2019-01-27T02:12:19.256Z,3.7
2019-01-27T02:14:18.914Z,3.7
2019-01-27T02:16:19.366Z,2.9
2019-01-27T02:18:19.119Z,3.1
2019-01-27T02:20:18.807Z,3.5
2019-01-27T02:22:18.466Z,3.4
2019-01-27T02:24:19.139Z,3.4
2019-01-27T02:26:19.120Z,2.9
2019-01-27T02:28:18.763Z,3.1
2019-01-27T02:30:19.567Z,3.8
2019-01-27T02:32:19.268Z,3.3
2019-01-27T02:34:19.005Z,2.3
2019-01-27T02:36:19.360Z,3
2019-01-27T02:38:19.028Z,2.7
2019-01-27T02:40:19.167Z,3.6
2019-01-27T02:42:18.808Z,3.6
2019-01-27T02:44:18.463Z,3.4
2019-01-27T02:46:18.772Z,3.4
2019-01-27T02:48:19.415Z,2.9
2019-01-27T02:50:19.065Z,2.5
2019-01-27T02:52:18.742Z,2.9
2019-01-27T02:54:19.426Z,3.2
2019-01-27T02:56:19.451Z,2.9
2019-01-27T02:58:19.108Z,3
2019-01-27T03:00:18.772Z,2.8
2019-01-27T03:02:19.489Z,2.9
2019-01-27T03:04:19.158Z,2.6
2019-01-27T03:06:18.618Z,2.5
2019-01-27T03:08:19.292Z,2.7
2019-01-27T03:10:19.431Z,2.1
2019-01-27T03:12:19.165Z,2
2019-01-27T03:14:18.879Z,2.6
2019-01-27T03:16:18.813Z,2.4
2019-01-27T03:18:18.539Z,2.1
2019-01-27T03:20:19.244Z,2.1
2019-01-27T03:22:18.935Z,2.2
2019-01-27T03:24:18.610Z,2.2
2019-01-27T03:26:19.011Z,2.4
2019-01-27T03:28:18.701Z,2.4
2019-01-27T03:30:19.398Z,2.5
2019-01-27T03:32:19.076Z,1.8
2019-01-27T03:34:18.749Z,2
2019-01-27T03:36:19.071Z,2
2019-01-27T03:38:18.719Z,2.4
2019-01-27T03:40:18.855Z,2.5
2019-01-27T03:42:18.511Z,1.9
2019-01-27T03:44:19.187Z,2.7
2019-01-27T03:46:19.111Z,2.1
2019-01-27T03:48:18.775Z,1.8
2019-01-27T03:50:19.435Z,1.8
2019-01-27T03:52:18.848Z,1.7
2019-01-27T03:54:18.499Z,2.2
2019-01-27T03:56:18.492Z,2.1
2019-01-27T03:58:19.161Z,2.4
2019-01-27T04:00:18.807Z,2.4
2019-01-27T04:02:18.511Z,2.1
2019-01-27T04:04:19.168Z,2.1
2019-01-27T04:06:19.228Z,2
2019-01-27T04:08:18.871Z,2.2
2019-01-27T04:10:18.991Z,1.9
2019-01-27T04:12:18.640Z,2.1
2019-01-27T04:14:19.297Z,1.7
2019-01-27T04:16:18.613Z,1.8
2019-01-27T04:18:19.357Z,1.6
2019-01-27T04:20:19.105Z,1.2
2019-01-27T04:22:18.769Z,2.1
2019-01-27T04:24:19.420Z,1.6
2019-01-27T04:26:18.511Z,1.3
2019-01-27T04:28:19.185Z,1.7
2019-01-27T04:30:18.861Z,1.8
2019-01-27T04:32:18.541Z,1.8
2019-01-27T04:34:19.206Z,1.4
2019-01-27T04:36:19.077Z,1.4
2019-01-27T04:38:18.720Z,1.9
2019-01-27T04:40:18.874Z,1.2
2019-01-27T04:42:18.520Z,1.9
2019-01-27T04:44:19.166Z,1.8
2019-01-27T04:46:19.092Z,1.8
2019-01-27T04:48:18.770Z,1.6
2019-01-27T04:50:19.433Z,1.3
2019-01-27T04:52:18.451Z,1.6
2019-01-27T04:54:19.132Z,1.8
2019-01-27T04:56:18.980Z,2.1
2019-01-27T04:58:18.644Z,2
2019-01-27T05:00:19.290Z,0.9
2019-01-27T05:02:18.999Z,1.3
2019-01-27T05:04:18.686Z,1.7
2019-01-27T05:06:19.121Z,1.4
2019-01-27T05:08:18.778Z,1.4
2019-01-27T05:10:18.909Z,1.7
2019-01-27T05:12:18.559Z,1.7
2019-01-27T05:14:19.181Z,1.7
2019-01-27T05:16:19.082Z,1.8
2019-01-27T05:18:18.786Z,1.2
2019-01-27T05:20:18.434Z,1.2
2019-01-27T05:22:19.092Z,1.4
2019-01-27T05:24:18.763Z,2.2
2019-01-27T05:26:19.166Z,1.9
2019-01-27T05:28:18.799Z,1.4
2019-01-27T05:30:18.470Z,1.4
2019-01-27T05:32:19.126Z,1.4
2019-01-27T05:34:18.771Z,1.4
2019-01-27T05:36:19.334Z,1.6
2019-01-27T05:38:19.007Z,1.6
2019-01-27T05:40:19.202Z,1.9
2019-01-27T05:42:18.888Z,1.6
2019-01-27T05:44:18.530Z,1.4
2019-01-27T05:46:19.427Z,1.7
2019-01-27T05:48:19.083Z,1.2
2019-01-27T05:50:18.771Z,1.4
2019-01-27T05:52:19.403Z,1.9
2019-01-27T05:54:20.209Z,2
2019-01-27T05:56:19.106Z,1.3
2019-01-27T05:58:18.766Z,1.5
2019-01-27T06:00:19.419Z,1.4
2019-01-27T06:02:19.073Z,1.7
2019-01-27T06:04:18.740Z,1.8
2019-01-27T06:06:18.615Z,2.1
2019-01-27T06:08:19.302Z,2.5
2019-01-27T06:10:19.419Z,1.3
2019-01-27T06:12:19.052Z,1.5
2019-01-27T06:14:18.690Z,1.1
2019-01-27T06:16:18.703Z,1.2
2019-01-27T06:18:19.426Z,1.2
2019-01-27T06:20:19.091Z,1.3
2019-01-27T06:22:18.768Z,1.5
2019-01-27T06:24:19.427Z,1.2
2019-01-27T06:26:19.440Z,1.2
2019-01-27T06:28:19.087Z,1.1
2019-01-27T06:30:18.771Z,1.4
2019-01-27T06:32:19.435Z,1.6
2019-01-27T06:34:19.139Z,1.4
2019-01-27T06:36:18.995Z,1.2
2019-01-27T06:38:18.663Z,1.5
2019-01-27T06:40:18.753Z,1.3
2019-01-27T06:42:19.427Z,1.4
2019-01-27T06:44:19.087Z,1.4
2019-01-27T06:46:19.449Z,1
2019-01-27T06:48:19.293Z,1.5
2019-01-27T06:50:18.956Z,2
2019-01-27T06:52:18.649Z,1.6
2019-01-27T06:54:19.307Z,1.9
2019-01-27T06:56:19.271Z,1.5
2019-01-27T06:58:18.915Z,1.1
2019-01-27T07:00:18.551Z,1.3
2019-01-27T07:02:19.186Z,1.5
2019-01-27T07:04:18.817Z,1.4
2019-01-27T07:06:19.293Z,1.3
2019-01-27T07:08:18.936Z,1.5
2019-01-27T07:10:19.043Z,1.6
2019-01-27T07:12:18.704Z,1.3
2019-01-27T07:14:20.835Z,1.4
2019-01-27T07:16:19.428Z,1.1
2019-01-27T07:18:19.155Z,1.1
2019-01-27T07:20:18.864Z,1.5
2019-01-27T07:22:18.523Z,1.1
2019-01-27T07:24:19.145Z,1.4
2019-01-27T07:26:19.099Z,1.3
2019-01-27T07:28:18.730Z,1.2
2019-01-27T07:30:19.407Z,1.1
2019-01-27T07:32:19.045Z,1.3
2019-01-27T07:34:18.676Z,1.4
2019-01-27T07:36:18.568Z,1.2
2019-01-27T07:38:19.250Z,1.6
2019-01-27T07:40:19.420Z,0.8
2019-01-27T07:42:19.082Z,0.9
2019-01-27T07:44:18.763Z,0.9
2019-01-27T07:46:19.059Z,0.9
2019-01-27T07:48:18.712Z,1.1
2019-01-27T07:50:19.375Z,1.3
2019-01-27T07:52:19.060Z,1
2019-01-27T07:54:18.715Z,1.1
2019-01-27T07:56:18.633Z,1.3
2019-01-27T07:58:19.331Z,1.2
2019-01-27T08:00:18.981Z,1
2019-01-27T08:02:18.649Z,1
2019-01-27T08:04:19.321Z,1
2019-01-27T08:06:18.665Z,1.7
2019-01-27T08:08:19.327Z,1
2019-01-27T08:10:18.477Z,1.7
2019-01-27T08:12:19.147Z,0.9
2019-01-27T08:14:18.790Z,0.9
2019-01-27T08:16:18.639Z,0.9
2019-01-27T08:18:19.371Z,1
2019-01-27T08:20:19.040Z,0.9
2019-01-27T08:22:18.749Z,1
2019-01-27T08:24:19.379Z,0.9
2019-01-27T08:26:18.756Z,0.8
2019-01-27T08:28:19.408Z,0.7
2019-01-27T08:30:19.074Z,1
2019-01-27T08:32:18.724Z,0.9
2019-01-27T08:34:19.399Z,0.7
2019-01-27T08:36:18.718Z,0.9
2019-01-27T08:38:19.355Z,0.7
2019-01-27T08:40:18.513Z,1.1
2019-01-27T08:42:19.148Z,0.7
2019-01-27T08:44:18.822Z,0.8
2019-01-27T08:46:19.114Z,0.7
2019-01-27T08:48:18.772Z,0.8
2019-01-27T08:50:19.428Z,0.5
2019-01-27T08:52:19.093Z,0.9
2019-01-27T08:54:18.729Z,0.8
2019-01-27T08:56:18.562Z,0.5
2019-01-27T08:58:19.213Z,0.6
2019-01-27T09:00:18.890Z,0.5
2019-01-27T09:02:18.573Z,0.8
2019-01-27T09:04:19.214Z,0.7
2019-01-27T09:06:18.572Z,0.7
2019-01-27T09:08:19.268Z,0.7
2019-01-27T09:10:19.425Z,0.7
2019-01-27T09:12:19.106Z,0.6
2019-01-27T09:14:18.781Z,0.5
2019-01-27T09:16:19.115Z,0.7
2019-01-27T09:18:18.851Z,0.8
2019-01-27T09:20:18.519Z,1
2019-01-27T09:22:19.159Z,0.5
2019-01-27T09:24:18.810Z,0.4
2019-01-27T09:26:19.185Z,0.9
2019-01-27T09:28:18.843Z,0.7
2019-01-27T09:30:18.486Z,0.8
2019-01-27T09:32:19.169Z,0.5
2019-01-27T09:34:18.805Z,0.7
2019-01-27T09:36:19.159Z,0.8
2019-01-27T09:38:18.838Z,0.2
2019-01-27T09:40:18.981Z,0.6
2019-01-27T09:42:19.354Z,0.4
2019-01-27T09:44:19.042Z,0.5
2019-01-27T09:46:18.900Z,0.6
2019-01-27T09:48:18.588Z,0.5
2019-01-27T09:50:19.260Z,0.5
2019-01-27T09:52:18.924Z,0.6
2019-01-27T09:54:18.569Z,0.6
2019-01-27T09:56:18.886Z,0.5
2019-01-27T09:58:18.562Z,0.5
2019-01-27T10:00:19.227Z,0.6
2019-01-27T10:02:18.652Z,0.8
2019-01-27T10:04:19.324Z,1
2019-01-27T10:06:18.659Z,0.6
2019-01-27T10:08:19.318Z,0.5
2019-01-27T10:10:19.511Z,0.4
2019-01-27T10:12:19.187Z,0.6
2019-01-27T10:14:18.872Z,0.4
2019-01-27T10:16:18.815Z,0.5
2019-01-27T10:18:18.540Z,0.6
2019-01-27T10:20:19.199Z,0.6
2019-01-27T10:22:18.878Z,0.6
2019-01-27T10:24:18.545Z,0.5
2019-01-27T10:26:18.563Z,0.4
2019-01-27T10:28:19.212Z,0.6
2019-01-27T10:30:18.881Z,0.6
2019-01-27T10:32:18.533Z,0.7
2019-01-27T10:34:19.231Z,0.5
2019-01-27T10:36:19.091Z,0.8
2019-01-27T10:38:18.729Z,0.4
2019-01-27T10:40:18.861Z,0.6
2019-01-27T10:42:18.533Z,0.4
2019-01-27T10:44:19.198Z,0.6
2019-01-27T10:46:18.631Z,0.6
2019-01-27T10:48:19.310Z,0.6
2019-01-27T10:50:18.972Z,0.8
2019-01-27T10:52:18.652Z,0.7
2019-01-27T10:54:19.327Z,0.8
2019-01-27T10:56:18.973Z,0.5
2019-01-27T10:58:18.623Z,0.4
2019-01-27T11:00:19.286Z,0.8
2019-01-27T11:02:18.936Z,0.6
2019-01-27T11:04:18.607Z,0.7
2019-01-27T11:06:18.784Z,0.4
2019-01-27T11:08:19.447Z,1.2
2019-01-27T11:10:18.572Z,0.6
2019-01-27T11:12:19.280Z,0.5
2019-01-27T11:14:18.969Z,0.8
2019-01-27T11:16:18.872Z,0.5
2019-01-27T11:18:18.631Z,0.5
2019-01-27T11:20:19.295Z,0.5
2019-01-27T11:22:18.932Z,1
2019-01-27T11:24:18.608Z,0.9
2019-01-27T11:26:18.975Z,0.7
2019-01-27T11:28:18.659Z,0.8
2019-01-27T11:30:19.328Z,0.4
2019-01-27T11:32:18.846Z,0.4
2019-01-27T11:34:18.513Z,0.4
2019-01-27T11:36:18.830Z,0.3
2019-01-27T11:38:18.510Z,0.3
2019-01-27T11:40:18.664Z,0.7
2019-01-27T11:42:19.308Z,0.5
2019-01-27T11:44:19.001Z,0.3
2019-01-27T11:46:18.670Z,0.4
2019-01-27T11:48:19.332Z,0.6
2019-01-27T11:50:19.002Z,0.6
2019-01-27T11:52:18.631Z,0.5
2019-01-27T11:54:19.290Z,0.5
2019-01-27T11:56:19.164Z,0.6
2019-01-27T11:58:18.853Z,0.9
2019-01-27T12:00:18.500Z,0.4
2019-01-27T12:02:19.177Z,0.5
2019-01-27T12:04:18.865Z,0.4
2019-01-27T12:06:18.746Z,0.3
2019-01-27T12:08:19.433Z,0.5
2019-01-27T12:10:18.573Z,0.4
2019-01-27T12:12:19.272Z,0.5
2019-01-27T12:14:18.942Z,0.5
2019-01-27T12:16:19.349Z,0.3
2019-01-27T12:18:19.062Z,0.5
2019-01-27T12:20:18.748Z,0.5
2019-01-27T12:22:18.706Z,0.4
2019-01-27T12:24:19.363Z,0.3
2019-01-27T12:26:18.700Z,0.4
2019-01-27T12:34:18.890Z,0.4
2019-01-27T12:36:18.953Z,0.5
2019-01-27T12:38:18.663Z,0.5
2019-01-27T12:40:18.829Z,0.4
2019-01-27T12:42:18.796Z,0.4
2019-01-27T12:44:19.472Z,0.4
2019-01-27T12:46:18.534Z,0.5
2019-01-27T12:48:19.209Z,0.4
2019-01-27T12:50:18.855Z,0.4
2019-01-27T12:52:18.510Z,0.4
2019-01-27T12:54:19.145Z,0.2
2019-01-27T12:56:18.970Z,0.5
2019-01-27T12:58:18.614Z,0.4
2019-01-27T13:00:19.288Z,0.4
2019-01-27T13:02:18.975Z,0.5
2019-01-27T13:04:18.625Z,0.6
2019-01-27T13:06:19.259Z,0.4
2019-01-27T13:08:18.911Z,0.7
2019-01-27T13:10:19.153Z,0.6
2019-01-27T13:12:18.825Z,0.2
2019-01-27T13:14:18.471Z,0.4
2019-01-27T13:16:18.647Z,0.5
2019-01-27T13:18:19.380Z,0.3
2019-01-27T13:20:19.030Z,0.4
2019-01-27T13:22:18.689Z,0.4
2019-01-27T13:24:19.329Z,0.5
2019-01-27T13:26:18.673Z,0.2
2019-01-27T13:28:19.350Z,0.4
2019-01-27T13:30:19.040Z,0.4
2019-01-27T13:32:19.039Z,0.4
2019-01-27T13:34:18.727Z,0.3
2019-01-27T13:36:18.613Z,0.3
2019-01-27T13:38:19.288Z,0.2
2019-01-27T13:40:19.587Z,0.4
2019-01-27T13:42:19.261Z,0.3
2019-01-27T13:44:19.269Z,0.4
2019-01-27T13:46:19.246Z,0.3
2019-01-27T13:48:18.913Z,0.3
2019-01-27T13:50:18.589Z,0.5
2019-01-27T13:52:19.265Z,0.8
2019-01-27T13:54:18.978Z,0.3
2019-01-27T13:56:19.310Z,0.3
2019-01-27T13:58:18.936Z,0.6
2019-01-27T14:00:19.332Z,0.4
2019-01-27T14:02:19.076Z,0.5
2019-01-27T14:04:18.760Z,0.7
2019-01-27T14:06:18.586Z,0.7
2019-01-27T14:08:19.245Z,0.7
2019-01-27T14:10:19.455Z,0.4
2019-01-27T14:12:19.137Z,0.5
2019-01-27T14:14:18.798Z,0.3
2019-01-27T14:16:18.993Z,0.7
2019-01-27T14:18:18.783Z,0.5
2019-01-27T14:20:19.468Z,0.5
2019-01-27T14:22:19.163Z,0.3
2019-01-27T14:24:18.833Z,0.5
2019-01-27T14:26:19.420Z,0.6
2019-01-27T14:28:19.086Z,0.5
2019-01-27T14:30:18.775Z,0.2
2019-01-27T14:32:18.495Z,0.3
2019-01-27T14:34:19.191Z,0.3
2019-01-27T14:36:19.083Z,0.4
2019-01-27T14:38:18.741Z,0.3
2019-01-27T14:40:18.905Z,0.3
2019-01-27T14:42:18.603Z,0.1
2019-01-27T14:44:19.269Z,0.5
2019-01-27T14:46:18.555Z,0.5
2019-01-27T14:48:19.204Z,0.4
2019-01-27T14:50:18.875Z,0.3
2019-01-27T14:52:18.563Z,0.5
2019-01-27T14:54:19.244Z,0.5
2019-01-27T14:56:19.139Z,0.6
2019-01-27T14:58:18.808Z,0.5
2019-01-27T15:00:18.480Z,0.4
2019-01-27T15:02:19.100Z,0.5
2019-01-27T15:04:18.800Z,0.6
2019-01-27T15:06:18.691Z,0.7
2019-01-27T15:08:19.408Z,0.7
2019-01-27T15:10:18.626Z,0.6
2019-01-27T15:12:19.354Z,0.7
2019-01-27T15:14:19.050Z,0.5
2019-01-27T15:16:19.119Z,0.5
2019-01-27T15:18:19.845Z,0.6
2019-01-27T15:20:18.615Z,0.4
2019-01-27T15:22:19.254Z,0.5
2019-01-27T15:24:18.902Z,0.6
2019-01-27T15:26:19.232Z,0.8
2019-01-27T15:28:18.893Z,1.3
2019-01-27T15:30:18.572Z,0.7
2019-01-27T15:32:19.253Z,0.7
2019-01-27T15:34:18.894Z,0.6
2019-01-27T15:36:19.287Z,0.5
2019-01-27T15:38:18.956Z,0.8
2019-01-27T15:40:19.104Z,1.4
2019-01-27T15:42:18.750Z,0.9
2019-01-27T15:44:19.421Z,0.7
2019-01-27T15:46:19.321Z,0.6
2019-01-27T15:48:18.989Z,0.6
2019-01-27T15:50:18.641Z,0.7
2019-01-27T15:52:19.314Z,1
2019-01-27T15:54:18.989Z,0.8
2019-01-27T15:56:19.287Z,0.6
2019-01-27T15:58:18.924Z,0.6
2019-01-27T16:00:18.608Z,0.7
2019-01-27T16:02:19.269Z,0.5
2019-01-27T16:04:18.976Z,0.7
2019-01-27T16:06:19.318Z,0.5
2019-01-27T16:08:18.978Z,0.7
2019-01-27T16:10:19.121Z,0.9
2019-01-27T16:12:18.764Z,1
2019-01-27T16:14:19.419Z,0.6
2019-01-27T16:16:19.026Z,0.6
2019-01-27T16:18:18.751Z,0.9
2019-01-27T16:20:19.541Z,1.3
2019-01-27T16:22:19.194Z,1.3
2019-01-27T16:24:18.840Z,1.2
2019-01-27T16:26:19.098Z,1.2
2019-01-27T16:28:18.732Z,2.1
2019-01-27T16:30:19.400Z,1.4
2019-01-27T16:32:19.094Z,2.3
2019-01-27T16:34:18.744Z,1.9
2019-01-27T16:36:19.061Z,1.9
2019-01-27T16:38:18.741Z,1.6
2019-01-27T16:40:18.913Z,1.1
2019-01-27T16:42:18.608Z,1
2019-01-27T16:44:19.255Z,1.6
2019-01-27T16:46:18.651Z,0.9
2019-01-27T16:48:19.319Z,0.8
2019-01-27T16:50:19.040Z,0.9
2019-01-27T16:52:18.688Z,0.8
2019-01-27T16:54:19.350Z,0.7
2019-01-27T16:56:19.113Z,0.8
2019-01-27T16:58:18.739Z,0.6
2019-01-27T17:00:20.257Z,0.8
2019-01-27T17:02:19.003Z,0.5
2019-01-27T17:04:18.686Z,1.1
2019-01-27T17:06:18.972Z,0.9
2019-01-27T17:08:18.627Z,0.8
2019-01-27T17:10:18.781Z,0.8
2019-01-27T17:12:18.457Z,0.9
2019-01-27T17:14:19.112Z,0.8
2019-01-27T17:16:19.237Z,0.8
2019-01-27T17:18:18.944Z,0.8
2019-01-27T17:20:18.598Z,0.9
2019-01-27T17:22:19.266Z,0.7
2019-01-27T17:24:18.912Z,1.3
2019-01-27T17:26:19.212Z,1.5
2019-01-27T17:28:18.863Z,1.4
2019-01-27T17:30:18.525Z,1.2
2019-01-27T17:32:19.173Z,1.1
2019-01-27T17:34:18.859Z,1
2019-01-27T17:36:19.267Z,0.7
2019-01-27T17:38:18.910Z,0.8
2019-01-27T17:40:19.042Z,0.6
2019-01-27T17:42:18.698Z,1.2
2019-01-27T17:44:19.353Z,0.9
2019-01-27T17:46:19.230Z,0.8
2019-01-27T17:48:18.886Z,0.8
2019-01-27T17:50:18.557Z,1
2019-01-27T17:52:19.241Z,0.4
2019-01-27T17:54:18.889Z,0.7
2019-01-27T17:56:19.370Z,0.8
2019-01-27T17:58:19.016Z,0.7
2019-01-27T18:00:18.670Z,0.9
2019-01-27T18:02:19.320Z,1.1
2019-01-27T18:04:18.977Z,0.9
2019-01-27T18:06:19.321Z,1.5
2019-01-27T18:08:18.978Z,0.6
2019-01-27T18:10:19.095Z,1.1
2019-01-27T18:12:18.776Z,1.1
2019-01-27T18:14:18.479Z,2.9
2019-01-27T18:16:18.818Z,1.4
2019-01-27T18:18:18.588Z,1.4
2019-01-27T18:20:19.283Z,0.8
2019-01-27T18:22:18.956Z,0.9
2019-01-27T18:24:18.609Z,0.7
2019-01-27T18:26:19.116Z,0.9
2019-01-27T18:28:18.813Z,0.8
2019-01-27T18:30:18.527Z,0.7
2019-01-27T18:32:19.170Z,0.9
2019-01-27T18:34:18.822Z,1
2019-01-27T18:36:19.173Z,0.7
2019-01-27T18:38:18.858Z,0.7
2019-01-27T18:40:19.024Z,0.7
2019-01-27T18:42:18.745Z,0.6
2019-01-27T18:44:19.417Z,0.9
2019-01-27T18:46:19.243Z,0.6
2019-01-27T18:48:18.928Z,1
2019-01-27T18:50:18.631Z,1
2019-01-27T18:52:19.281Z,0.7
2019-01-27T18:54:18.927Z,0.8
2019-01-27T18:56:19.225Z,1.2
2019-01-27T18:58:18.870Z,0.9
2019-01-27T19:00:18.522Z,0.8
2019-01-27T19:02:19.158Z,0.6
2019-01-27T19:04:18.861Z,0.8
2019-01-27T19:06:18.700Z,0.7
2019-01-27T19:08:19.331Z,0.8
2019-01-27T19:10:18.534Z,0.9
2019-01-27T19:12:19.204Z,0.8
2019-01-27T19:14:18.862Z,0.5
2019-01-27T19:16:18.801Z,0.7
2019-01-27T19:18:18.545Z,0.9
2019-01-27T19:20:19.236Z,0.8
2019-01-27T19:22:18.899Z,0.7
2019-01-27T19:24:18.533Z,1
2019-01-27T19:26:18.867Z,0.8
2019-01-27T19:28:18.535Z,1.2
2019-01-27T19:30:19.203Z,0.8
2019-01-27T19:32:18.862Z,1
2019-01-27T19:34:18.520Z,0.7
2019-01-27T19:36:18.884Z,1.2
2019-01-27T19:38:18.526Z,0.8
2019-01-27T19:40:18.670Z,1.2
2019-01-27T19:42:19.318Z,2
2019-01-27T19:44:18.965Z,1.7
2019-01-27T19:46:19.224Z,1.4
2019-01-27T19:48:18.903Z,1.8
2019-01-27T19:50:18.604Z,0.9
2019-01-27T19:52:19.223Z,0.6
2019-01-27T19:54:18.854Z,0.7
2019-01-27T19:56:18.652Z,0.7
2019-01-27T19:58:19.281Z,0.8
2019-01-27T20:00:19.085Z,0.7
2019-01-27T20:02:18.750Z,0.7
2019-01-27T20:04:19.449Z,1
2019-01-27T20:06:19.244Z,0.6
2019-01-27T20:08:18.914Z,0.6
2019-01-27T20:10:19.075Z,0.8
2019-01-27T20:12:18.721Z,0.9
2019-01-27T20:14:19.377Z,0.6
2019-01-27T20:16:19.235Z,1.3
2019-01-27T20:18:18.960Z,0.7
2019-01-27T20:20:18.615Z,0.9
2019-01-27T20:22:19.243Z,0.6
2019-01-27T20:24:18.864Z,0.6
2019-01-27T20:26:19.286Z,0.8
2019-01-27T20:28:18.932Z,1.2
2019-01-27T20:30:18.658Z,0.8
2019-01-27T20:32:19.301Z,0.9
2019-01-27T20:34:18.960Z,1.1
2019-01-27T20:36:19.068Z,1.4
2019-01-27T20:38:18.718Z,1.2
2019-01-27T20:40:18.963Z,1.4
2019-01-27T20:42:18.600Z,0.9
2019-01-27T20:44:19.254Z,0.8
2019-01-27T20:46:19.101Z,0.9
2019-01-27T20:48:18.808Z,0.9
2019-01-27T20:50:18.486Z,0.8
2019-01-27T20:52:19.145Z,0.6
2019-01-27T20:54:18.803Z,0.9
2019-01-27T20:56:19.100Z,1
2019-01-27T20:58:18.719Z,0.9
2019-01-27T21:00:19.351Z,0.9
2019-01-27T21:02:19.060Z,0.7
2019-01-27T21:04:18.704Z,0.9
2019-01-27T21:06:19.045Z,0.9
2019-01-27T21:08:18.665Z,1.1
2019-01-27T21:10:18.785Z,1
2019-01-27T21:12:19.415Z,0.6
2019-01-27T21:14:19.057Z,0.7
2019-01-27T21:16:18.986Z,0.6
2019-01-27T21:18:18.706Z,0.6
2019-01-27T21:20:19.406Z,0.6
2019-01-27T21:22:19.043Z,0.6
2019-01-27T21:24:18.688Z,0.5
2019-01-27T21:26:18.993Z,0.9
2019-01-27T21:28:18.648Z,0.6
2019-01-27T21:30:19.294Z,0.8
2019-01-27T21:32:18.955Z,0.8
2019-01-27T21:34:18.604Z,0.7
2019-01-27T21:36:18.548Z,0.6
2019-01-27T21:38:19.208Z,1
2019-01-27T21:40:19.413Z,0.5
2019-01-27T21:42:19.049Z,0.8
2019-01-27T21:44:18.689Z,0.7
2019-01-27T21:46:18.563Z,0.7
2019-01-27T21:48:19.215Z,0.5
2019-01-27T21:50:18.871Z,0.8
2019-01-27T21:52:18.495Z,0.4
2019-01-27T21:54:19.157Z,0.8
2019-01-27T21:56:19.410Z,0.7
2019-01-27T21:58:19.063Z,0.8
2019-01-27T22:00:18.718Z,1.2
2019-01-27T22:02:19.358Z,0.5
2019-01-27T22:04:18.975Z,0.7
2019-01-27T22:06:19.277Z,0.6
2019-01-27T22:08:18.906Z,0.7
2019-01-27T22:10:19.059Z,0.5
2019-01-27T22:12:18.696Z,0.5
2019-01-27T22:14:19.359Z,0.5
2019-01-27T22:16:19.207Z,0.4
2019-01-27T22:18:18.945Z,0.4
2019-01-27T22:20:18.604Z,0.5
2019-01-27T22:22:19.283Z,0.6
2019-01-27T22:24:18.903Z,0.6
2019-01-27T22:26:19.136Z,0.5
2019-01-27T22:28:18.769Z,0.5
2019-01-27T22:30:19.424Z,0.7
2019-01-27T22:32:19.090Z,0.9
2019-01-27T22:34:18.761Z,0.5
2019-01-27T22:36:19.406Z,0.6
2019-01-27T22:38:19.055Z,0.8
2019-01-27T22:40:19.182Z,0.5
2019-01-27T22:42:18.832Z,0.6
2019-01-27T22:44:18.523Z,0.5
2019-01-27T22:46:18.883Z,0.8
2019-01-27T22:48:18.523Z,0.9
2019-01-27T22:50:19.211Z,0.7
2019-01-27T22:52:18.856Z,1
2019-01-27T22:54:18.508Z,0.4
2019-01-27T22:56:18.884Z,0.5
2019-01-27T22:58:18.539Z,0.5
2019-01-27T23:00:19.185Z,0.6
2019-01-27T23:02:18.861Z,0.8
2019-01-27T23:04:18.507Z,0.6
2019-01-27T23:06:18.777Z,0.4
2019-01-27T23:08:19.430Z,0.5
2019-01-27T23:10:18.556Z,0.5
2019-01-27T23:12:19.212Z,0.5
2019-01-27T23:14:18.821Z,0.6
2019-01-27T23:16:19.080Z,0.7
2019-01-27T23:18:18.813Z,0.4
2019-01-27T23:20:18.480Z,0.8
2019-01-27T23:22:19.132Z,0.3
2019-01-27T23:24:18.826Z,0.5
2019-01-27T23:26:18.831Z,1.1
2019-01-27T23:28:18.481Z,0.7
2019-01-27T23:30:19.127Z,0.7
2019-01-27T23:32:18.748Z,0.4
2019-01-27T23:34:19.423Z,0.7
2019-01-27T23:36:19.209Z,0.5
2019-01-27T23:38:18.842Z,1.1
2019-01-27T23:40:18.978Z,0.7
2019-01-27T23:42:18.635Z,0.5
2019-01-27T23:44:19.280Z,0.5
2019-01-27T23:46:19.122Z,0.4
2019-01-27T23:48:18.842Z,0.8
2019-01-27T23:50:18.494Z,0.6
2019-01-27T23:52:19.129Z,0.6
2019-01-27T23:54:18.783Z,0.6
2019-01-27T23:56:19.151Z,0.7
2019-01-27T23:58:18.809Z,0.8
